Tuesday, October 21, 2014
15:12 UTC
  |  Log In   |  Register Free
Airport Search:

Carmi Municipal Airport
(KCUL)

Carmi Municipal Airport Diagram
No Airport Diagram Available

FAA data valid effective September 18, 2014 - November 13, 2014 (unless otherwise noted).

 
 
 
 
 
 
 
 
 
 
 
 
 
 

Current Aviation Weather for Carmi Municipal Airport (KCUL)

The most recent METAR observation for KCUL was updated at: 1509
METAR Summary (Translated METAR)
KCUL
211455Z AUTO 03006KT 10SM CLR 15/10 A3010 RMK AO2 T01510102
KFWC
211455Z AUTO 04007KT 10SM CLR 14/09 A3010 RMK AO1 T01420087
(22.1 nm NW from KCUL)
KHSB
211455Z AUTO 03005KT 10SM CLR 14/09 A3011 RMK AO2 T01380093
(26.2 nm SW from KCUL)
TAF
No TAF information found within 50 nm of KCUL
  Airport Weather Conditions for KCUL

 Current Weather at CUL
51° F
Fair
North winds at 0.0 mph
CUL NOAA Radar

Pressure: 30.08 in
Humidity: 93%
Wind: Calm
Dew Point: 49.1°F
Visibility: 10.00 mi


Airport Weather Forecast for KCUL

Translated METAR and TAF for KCUL
Translated METAR for KCUL (1507 UTC 21 October 2014)
found at http://aviationweather.gov/adds/metars/
 
METAR text: KCUL 211455Z AUTO 03006KT 10SM CLR 15/10 A3010 RMK AO2 T01510102
Conditions at: KCUL (CARMI MUNI , IL, US) observed 1455 UTC 21 October 2014
Temperature: 15.1°C (59°F)
Dewpoint: 10.2°C (50°F) [RH = 73%]
Pressure (altimeter): 30.10 inches Hg (1019.4 mb)
Winds: from the NNE (30 degrees) at 7 MPH (6 knots; 3.1 m/s)
Visibility: 10 or more miles (16+ km)
Ceiling: at least 12,000 feet AGL
Clouds: sky clear below 12,000 feet AGL
Weather: automated observation with no human augmentation;
there may or may not be significant weather present at this time
Translated TAF for KCUL

There is no translated TAF available for this airport

Find All Airport Services Find A Hotel Find A Rental Car Find A Golf Course Find A Restaurant $100 Hamburger



FBO's on the Field
FBO Company Facility Photos Services Transportation Aviation Fuel Prices: Prices include tax
Catering Weather Repair Courtesy Rental Type 100LL JetA JetA+ MOGAS 8087
 
Carmi Municipal Airport

This FBO has not yet been rated
FS:Shell
Last Updated: Oct-07
Login to update fuel prices
SS:
Contact Carmi Municipal AirportMore FBO Information
 
Carmi Municipal Airport

This FBO has not yet been rated
FS:Shell
Last Updated: Oct-03
Login to update fuel prices
SS:
Contact Carmi Municipal AirportMore FBO Information
 
Add another FBO Facility Photos Catering Weather Repair Courtesy Rental Type 100LL JetA JetA+ MOGAS 8087
Services Transportation Aviation Fuel Prices: Prices include tax


model-print
model-print
model-print
model-print